EGUW - Wattisham
Distance from station: E 5mi, 14km
Updated: 10/22/2017 4:50pm
Clear
Clear
 Wind from W
Wind: W 10 mph , 17 km/h
Temperature: 45°F , 7°C
Wind Chill: 40°F , 4°C
Dew Point: 41°F , 5°C
Humidity: 87%
Barometer: 30 inHg , 1016 hPa
Clouds: Clear
Visibility: 6 miles , 10 km
2017/10/22 23:50 EGUW 222350Z AUTO 26009KT 9999 NCD 07/05 Q1016